Time;durP1;ratioP1;P1;durP2;ratioP2;P2;SDS_P1;SDS_P2;PMS_P1;PMS_P2;Temp;Humidity;BMP_temperature;BMP_pressure;BME280_temperature;BME280_humidity;BME280_pressure;Samples;Min_cycle;Max_cycle;Signal;HPM_P1;HPM_P2
2022/01/16 00:05:49;;;;;;;26.37;17.20;;;5.60;90.80;;;;;;20866981;28;20277;-64
2022/01/16 00:15:50;;;;;;;24.50;15.93;;;5.50;90.70;;;;;;20925112;28;20255;-68
2022/01/16 00:25:56;;;;;;;25.53;16.77;;;5.50;90.60;;;;;;20925353;28;20635;-70
2022/01/16 00:35:57;;;;;;;23.47;15.80;;;5.50;90.60;;;;;;20923959;28;20237;-65
2022/01/16 00:45:59;;;;;;;25.67;16.50;;;5.30;90.40;;;;;;20923062;28;20546;-67
2022/01/16 00:56:01;;;;;;;27.53;17.47;;;5.30;90.60;;;;;;20923735;28;20231;-64
2022/01/16 01:06:03;;;;;;;24.83;17.37;;;5.30;90.50;;;;;;20980193;28;20253;-63
2022/01/16 01:16:05;;;;;;;27.67;18.20;;;5.40;90.60;;;;;;20919693;28;20263;-62
2022/01/16 01:26:07;;;;;;;29.57;18.93;;;5.40;90.50;;;;;;20918142;28;20214;-65
2022/01/16 01:36:09;;;;;;;27.10;19.20;;;5.40;90.50;;;;;;20917275;28;20243;-64
2022/01/16 01:56:31;;;;;;;33.20;20.87;;;5.30;90.50;;;;;;20918749;28;20241;-63
2022/01/16 02:06:33;;;;;;;37.63;22.80;;;5.30;90.50;;;;;;20922789;28;20211;-62
2022/01/16 02:37:19;;;;;;;36.63;23.17;;;;;;;;;;20914496;28;20232;-65
2022/01/16 02:47:21;;;;;;;36.33;22.03;;;5.10;90.70;;;;;;20914000;28;20265;-63
2022/01/16 02:57:22;;;;;;;35.93;21.07;;;5.00;90.60;;;;;;20897495;28;20388;-62
2022/01/16 03:07:25;;;;;;;34.43;19.57;;;4.90;90.80;;;;;;20827011;28;20205;-62
2022/01/16 03:17:41;;;;;;;31.47;18.10;;;4.80;90.90;;;;;;20829750;28;20241;-64
2022/01/16 03:27:43;;;;;;;31.67;18.13;;;4.80;91.30;;;;;;20830196;28;20208;-64
2022/01/16 03:37:45;;;;;;;28.23;16.17;;;4.90;91.20;;;;;;20832113;28;20297;-64
2022/01/16 03:47:46;;;;;;;28.90;16.40;;;4.70;91.40;;;;;;20846496;28;20282;-65
2022/01/16 03:57:48;;;;;;;28.47;16.00;;;4.60;91.50;;;;;;20845296;28;20236;-65
2022/01/16 04:07:50;;;;;;;31.10;16.40;;;4.60;91.80;;;;;;20847116;28;20267;-67
2022/01/16 04:17:52;;;;;;;28.80;16.27;;;4.50;92.20;;;;;;20843862;28;20302;-64
2022/01/16 04:27:53;;;;;;;31.17;16.50;;;4.50;92.40;;;;;;20843481;28;20208;-65
2022/01/16 04:37:55;;;;;;;34.03;17.03;;;4.40;92.60;;;;;;20841423;28;20228;-65
2022/01/16 04:48:05;;;;;;;36.07;16.37;;;4.60;93.10;;;;;;20840314;28;20299;-64
2022/01/16 04:58:06;;;;;;;29.73;15.57;;;4.60;93.00;;;;;;20852069;28;20284;-65
2022/01/16 05:08:08;;;;;;;28.67;14.20;;;4.70;93.40;;;;;;20920115;28;20204;-65
2022/01/16 05:18:10;;;;;;;28.60;13.80;;;4.60;93.30;;;;;;20920616;28;20313;-64
2022/01/16 05:28:12;;;;;;;17.43;9.60;;;4.70;93.50;;;;;;20920445;28;20211;-63
2022/01/16 05:38:13;;;;;;;13.60;8.17;;;4.50;93.50;;;;;;20919148;28;20276;-64
2022/01/16 05:48:15;;;;;;;14.20;8.60;;;4.30;93.40;;;;;;20918472;28;20238;-65
2022/01/16 05:58:17;;;;;;;12.43;7.70;;;4.30;93.50;;;;;;20917914;28;20235;-63
2022/01/16 06:08:18;;;;;;;15.03;8.67;;;4.30;93.50;;;;;;20916109;28;20262;-62
2022/01/16 06:18:20;;;;;;;14.23;8.30;;;4.40;93.30;;;;;;20915834;28;20240;-67
2022/01/16 06:28:24;;;;;;;13.77;8.27;;;4.30;93.60;;;;;;20915502;28;20204;-63
2022/01/16 06:42:33;;;;;;;16.63;9.57;;;4.40;93.40;;;;;;21068424;28;20991;-67
2022/01/16 06:52:35;;;;;;;18.50;9.77;;;4.40;93.40;;;;;;21066997;28;20267;-62
2022/01/16 07:02:37;;;;;;;18.97;10.73;;;4.40;93.50;;;;;;21019166;28;20211;-64
2022/01/16 07:12:39;;;;;;;20.03;10.40;;;4.40;93.50;;;;;;20980389;28;20257;-64
2022/01/16 07:22:42;;;;;;;18.60;11.03;;;4.40;93.60;;;;;;20981076;28;20211;-64
2022/01/16 07:32:44;;;;;;;20.87;11.70;;;4.30;93.60;;;;;;20978920;28;20647;-64
2022/01/16 07:42:46;;;;;;;19.67;11.87;;;4.40;93.70;;;;;;21076893;28;20653;-64
2022/01/16 07:52:48;;;;;;;24.17;11.50;;;4.40;93.50;;;;;;21095730;28;20564;-64
2022/01/16 08:02:50;;;;;;;26.43;13.00;;;4.50;93.60;;;;;;21089821;28;20664;-63
2022/01/16 08:12:52;;;;;;;24.97;13.27;;;4.50;93.80;;;;;;21088766;28;20203;-63
2022/01/16 08:22:54;;;;;;;26.87;14.60;;;4.40;93.20;;;;;;21087232;28;20661;-66
2022/01/16 08:32:56;;;;;;;28.53;14.87;;;4.30;93.30;;;;;;21085744;28;20230;-65
2022/01/16 08:42:58;;;;;;;29.37;15.57;;;4.40;93.10;;;;;;21083934;28;20217;-63
2022/01/16 08:53:00;;;;;;;30.50;15.97;;;4.50;93.00;;;;;;21084033;28;20681;-66
2022/01/16 09:03:02;;;;;;;29.70;15.33;;;4.40;92.90;;;;;;20968095;28;20257;-66
2022/01/16 09:13:06;;;;;;;30.37;16.83;;;4.50;93.00;;;;;;20988733;28;20686;-67
2022/01/16 09:23:08;;;;;;;34.57;17.43;;;4.50;93.30;;;;;;20916336;28;20262;-66
2022/01/16 09:33:10;;;;;;;32.13;17.40;;;4.30;92.90;;;;;;20914843;28;20239;-67
2022/01/16 09:43:12;;;;;;;37.97;18.73;;;4.00;92.70;;;;;;20914126;28;20613;-65
2022/01/16 09:53:14;;;;;;;31.30;16.17;;;3.70;92.80;;;;;;20951534;28;20332;-67
2022/01/16 10:03:51;;;;;;;33.33;16.47;;;3.60;92.90;;;;;;21067660;28;20215;-66
2022/01/16 10:13:58;;;;;;;32.30;15.83;;;3.80;93.10;;;;;;21051924;28;20234;-62
2022/01/16 10:24:15;;;;;;;33.00;16.27;;;3.90;93.30;;;;;;21079185;28;20665;-66
2022/01/16 10:34:28;;;;;;;28.17;15.33;;;4.00;93.10;;;;;;21084615;28;20264;-69
2022/01/16 10:44:31;;;;;;;28.00;14.43;;;4.10;93.30;;;;;;21077237;28;20206;-71
2022/01/16 10:54:35;;;;;;;26.73;13.50;;;4.20;93.50;;;;;;21077472;28;20766;-67
2022/01/16 11:04:37;;;;;;;27.57;13.70;;;4.20;93.30;;;;;;21077083;28;20682;-63
2022/01/16 11:14:39;;;;;;;25.47;12.80;;;4.30;93.50;;;;;;21076914;28;20291;-63
2022/01/16 11:24:58;;;;;;;20.67;11.87;;;4.30;93.70;;;;;;21085944;28;20267;-64
2022/01/16 11:35:00;;;;;;;21.40;12.13;;;4.20;93.70;;;;;;21091539;28;20641;-62
2022/01/16 11:45:03;;;;;;;21.40;11.07;;;4.60;93.80;;;;;;21091921;28;20717;-64
2022/01/16 11:55:07;;;;;;;19.90;10.60;;;4.70;93.50;;;;;;21082657;28;20246;-63
2022/01/16 12:05:09;;;;;;;22.30;11.50;;;4.60;93.30;;;;;;20920541;28;20213;-64
2022/01/16 12:15:14;;;;;;;20.47;11.20;;;4.40;93.40;;;;;;20922351;28;20231;-63
2022/01/16 12:25:26;;;;;;;23.67;12.13;;;4.20;93.30;;;;;;20922325;28;20214;-66
2022/01/16 12:35:49;;;;;;;22.83;12.33;;;4.20;93.60;;;;;;20922106;28;20244;-63
2022/01/16 12:45:51;;;;;;;21.50;11.97;;;4.40;93.40;;;;;;20922061;28;20335;-64
2022/01/16 12:55:53;;;;;;;21.07;12.40;;;4.40;93.30;;;;;;20919299;28;20236;-67
2022/01/16 13:06:24;;;;;;;22.13;12.57;;;4.40;93.00;;;;;;20917955;28;20208;-63
2022/01/16 13:16:31;;;;;;;23.20;12.97;;;4.50;93.20;;;;;;20927298;28;20277;-71
2022/01/16 13:26:34;;;;;;;22.83;13.40;;;4.50;93.50;;;;;;20929855;28;20207;-68
2022/01/16 13:36:36;;;;;;;25.13;13.40;;;4.60;93.30;;;;;;20914175;28;20231;-67
2022/01/16 13:46:38;;;;;;;26.47;14.03;;;4.60;93.30;;;;;;20913730;28;20261;-65
2022/01/16 13:56:48;;;;;;;27.77;14.53;;;4.60;93.20;;;;;;20987753;28;20276;-66
2022/01/16 14:06:56;;;;;;;29.27;15.27;;;4.60;93.60;;;;;;20996159;28;20210;-67
2022/01/16 14:27:08;;;;;;;24.87;14.37;;;4.80;93.20;;;;;;20913057;28;20262;-72
2022/01/16 14:37:11;;;;;;;27.13;14.90;;;4.90;93.30;;;;;;20911658;28;20262;-71
2022/01/16 14:47:14;;;;;;;30.17;15.93;;;4.90;93.20;;;;;;20950698;28;20260;-73
2022/01/16 14:57:19;;;;;;;28.20;15.00;;;4.90;93.20;;;;;;20998171;28;20227;-67
2022/01/16 15:07:20;;;;;;;27.50;15.87;;;4.80;93.30;;;;;;21005835;28;20200;-68
2022/01/16 15:17:28;;;;;;;28.67;15.47;;;;;;;;;;21005159;28;20235;-65
2022/01/16 15:27:30;;;;;;;26.97;14.83;;;5.10;93.30;;;;;;21076978;28;20738;-63
2022/01/16 15:37:32;;;;;;;31.17;16.07;;;5.00;93.20;;;;;;21008310;28;20241;-68
2022/01/16 15:52:50;;;;;;;25.07;14.63;;;5.10;93.10;;;;;;21050439;28;20552;-65
2022/01/16 16:02:56;;;;;;;31.53;17.47;;;5.00;93.00;;;;;;20935033;28;20212;-69
2022/01/16 16:12:58;;;;;;;26.17;15.40;;;5.10;93.10;;;;;;20953594;28;20208;-71
2022/01/16 16:23:00;;;;;;;27.80;15.60;;;5.10;93.00;;;;;;20930808;28;20203;-71
2022/01/16 16:33:17;;;;;;;31.20;16.43;;;5.10;92.80;;;;;;21235726;27;20575;-68
2022/01/16 16:43:19;;;;;;;32.40;17.37;;;5.00;93.00;;;;;;21237542;28;20254;-72
2022/01/16 16:53:21;;;;;;;33.87;19.23;;;5.00;92.90;;;;;;21217345;28;20232;-71
2022/01/16 17:03:42;;;;;;;33.63;19.27;;;4.90;93.00;;;;;;21237881;28;20241;-65
2022/01/16 17:13:50;;;;;;;33.27;18.87;;;4.90;93.20;;;;;;21233997;28;20244;-73
2022/01/16 17:23:51;;;;;;;34.30;18.97;;;4.90;93.20;;;;;;21233155;28;20638;-67
2022/01/16 17:33:53;;;;;;;39.60;20.03;;;5.00;93.40;;;;;;21231203;28;20218;-63
2022/01/16 17:43:55;;;;;;;38.03;19.83;;;5.00;93.50;;;;;;21177538;28;20274;-69
2022/01/16 17:53:57;;;;;;;38.00;20.80;;;4.90;93.90;;;;;;21230655;27;20724;-66
2022/01/16 18:04:01;;;;;;;37.43;20.17;;;4.90;94.00;;;;;;21258032;27;20745;-66
2022/01/16 18:14:03;;;;;;;41.90;22.33;;;4.80;94.20;;;;;;21183254;27;20203;-63
2022/01/16 18:24:06;;;;;;;40.37;21.93;;;4.90;94.40;;;;;;21161814;28;20247;-64
2022/01/16 18:34:09;;;;;;;40.57;20.77;;;4.70;94.60;;;;;;21113015;28;20198;-63
2022/01/16 18:44:11;;;;;;;41.70;21.53;;;4.70;94.70;;;;;;21085325;28;20231;-66
2022/01/16 18:54:14;;;;;;;35.33;19.23;;;4.70;95.00;;;;;;21084167;28;20207;-65
2022/01/16 19:04:19;;;;;;;36.80;18.73;;;4.80;94.90;;;;;;21107598;28;20233;-65
2022/01/16 19:14:21;;;;;;;33.97;18.60;;;4.70;95.00;;;;;;21082423;28;20264;-64
2022/01/16 19:24:24;;;;;;;33.13;18.03;;;4.80;95.20;;;;;;21231037;27;20247;-65
2022/01/16 19:34:26;;;;;;;31.10;17.17;;;4.70;95.10;;;;;;21210402;27;20202;-63
2022/01/16 19:44:27;;;;;;;29.43;17.33;;;4.80;95.30;;;;;;21095539;28;20299;-63
2022/01/16 19:54:33;;;;;;;28.73;15.73;;;4.90;95.20;;;;;;21150427;28;20251;-63
2022/01/16 20:04:35;;;;;;;26.70;15.40;;;5.00;95.30;;;;;;21163007;28;20237;-63
2022/01/16 20:14:36;;;;;;;24.40;14.67;;;5.10;95.30;;;;;;21149981;28;20740;-61
2022/01/16 20:24:38;;;;;;;22.80;14.63;;;5.30;95.30;;;;;;21161013;28;20722;-64
2022/01/16 20:34:40;;;;;;;24.60;14.03;;;5.30;95.00;;;;;;21080520;28;20203;-64
2022/01/16 20:44:41;;;;;;;23.67;14.73;;;5.50;95.00;;;;;;21122325;28;20230;-60
2022/01/16 21:03:04;;;;;;;24.40;15.33;;;5.40;94.90;;;;;;20987970;28;20653;-64
2022/01/16 21:13:07;;;;;;;27.10;14.90;;;5.50;95.10;;;;;;20865788;28;20240;-62
2022/01/16 21:23:10;;;;;;;25.47;16.57;;;5.50;95.30;;;;;;20817979;28;20216;-62
2022/01/16 21:33:13;;;;;;;26.37;16.77;;;5.50;95.20;;;;;;20894058;28;20204;-65
2022/01/16 21:43:15;;;;;;;26.23;16.70;;;5.60;95.20;;;;;;20897163;28;20630;-62
2022/01/16 21:53:21;;;;;;;26.60;16.70;;;5.60;95.10;;;;;;20895919;28;20295;-63
2022/01/16 22:03:23;;;;;;;29.77;18.13;;;5.40;95.00;;;;;;20894663;28;20205;-61
2022/01/16 22:13:28;;;;;;;30.73;18.60;;;5.00;95.80;;;;;;20844496;28;20633;-65
2022/01/16 22:23:32;;;;;;;30.17;17.87;;;5.00;95.90;;;;;;20840230;28;20213;-62
2022/01/16 22:34:12;;;;;;;30.63;18.37;;;5.20;95.90;;;;;;21237331;27;20282;-62
2022/01/16 22:44:13;;;;;;;29.10;17.03;;;5.40;95.80;;;;;;21150854;28;20652;-62
2022/01/16 22:54:18;;;;;;;30.10;17.30;;;5.40;95.60;;;;;;21067116;28;20203;-63
2022/01/16 23:04:20;;;;;;;31.33;17.73;;;5.40;95.30;;;;;;21068396;28;20211;-62
2022/01/16 23:14:22;;;;;;;28.33;16.60;;;5.40;95.30;;;;;;21067210;28;20211;-64
2022/01/16 23:24:24;;;;;;;26.33;16.27;;;5.50;95.40;;;;;;21122755;28;20266;-63
2022/01/16 23:34:29;;;;;;;27.13;15.60;;;5.40;95.40;;;;;;21146290;28;20209;-62
2022/01/16 23:44:32;;;;;;;23.83;15.40;;;5.30;95.50;;;;;;21096274;28;20677;-62
2022/01/16 23:54:34;;;;;;;26.43;15.50;;;;;;;;;;21090297;28;20213;-62
